sensor_id;sensor_type;location;lat;lon;timestamp;P1;durP1;ratioP1;P2;durP2;ratioP2
76745;SDS011;65671;49.976;20.038;2023-02-08T00:01:18;114.95;;;50.90;;
76745;SDS011;65671;49.976;20.038;2023-02-08T00:03:45;123.32;;;50.33;;
76745;SDS011;65671;49.976;20.038;2023-02-08T00:06:12;104.70;;;49.13;;
76745;SDS011;65671;49.976;20.038;2023-02-08T00:08:38;115.50;;;49.40;;
76745;SDS011;65671;49.976;20.038;2023-02-08T00:11:05;111.85;;;48.22;;
76745;SDS011;65671;49.976;20.038;2023-02-08T00:13:31;105.15;;;45.75;;
76745;SDS011;65671;49.976;20.038;2023-02-08T00:15:58;110.28;;;46.50;;
76745;SDS011;65671;49.976;20.038;2023-02-08T00:18:24;99.35;;;46.05;;
76745;SDS011;65671;49.976;20.038;2023-02-08T00:20:50;110.63;;;46.28;;
76745;SDS011;65671;49.976;20.038;2023-02-08T00:23:16;102.65;;;44.60;;
76745;SDS011;65671;49.976;20.038;2023-02-08T00:25:42;103.90;;;45.05;;
76745;SDS011;65671;49.976;20.038;2023-02-08T00:28:08;112.97;;;47.22;;
76745;SDS011;65671;49.976;20.038;2023-02-08T00:30:38;109.93;;;46.70;;
76745;SDS011;65671;49.976;20.038;2023-02-08T00:33:03;103.47;;;44.75;;
76745;SDS011;65671;49.976;20.038;2023-02-08T00:35:29;102.68;;;46.00;;
76745;SDS011;65671;49.976;20.038;2023-02-08T00:37:56;112.32;;;48.22;;
76745;SDS011;65671;49.976;20.038;2023-02-08T00:42:47;97.82;;;42.10;;
76745;SDS011;65671;49.976;20.038;2023-02-08T00:45:13;100.57;;;44.22;;
76745;SDS011;65671;49.976;20.038;2023-02-08T00:47:39;96.10;;;42.42;;
76745;SDS011;65671;49.976;20.038;2023-02-08T00:50:05;99.15;;;42.92;;
76745;SDS011;65671;49.976;20.038;2023-02-08T00:52:31;105.60;;;47.72;;
76745;SDS011;65671;49.976;20.038;2023-02-08T00:54:57;99.45;;;43.05;;
76745;SDS011;65671;49.976;20.038;2023-02-08T00:57:23;92.82;;;42.50;;
76745;SDS011;65671;49.976;20.038;2023-02-08T00:59:49;105.55;;;44.08;;
76745;SDS011;65671;49.976;20.038;2023-02-08T01:02:14;106.82;;;45.92;;
76745;SDS011;65671;49.976;20.038;2023-02-08T01:04:40;103.40;;;44.15;;
76745;SDS011;65671;49.976;20.038;2023-02-08T01:07:06;101.57;;;45.60;;
76745;SDS011;65671;49.976;20.038;2023-02-08T01:09:32;95.28;;;41.85;;
76745;SDS011;65671;49.976;20.038;2023-02-08T01:11:58;92.82;;;41.28;;
76745;SDS011;65671;49.976;20.038;2023-02-08T01:14:23;94.00;;;39.13;;
76745;SDS011;65671;49.976;20.038;2023-02-08T01:16:50;91.60;;;40.33;;
76745;SDS011;65671;49.976;20.038;2023-02-08T01:19:16;96.75;;;43.47;;
76745;SDS011;65671;49.976;20.038;2023-02-08T01:21:42;101.63;;;44.20;;
76745;SDS011;65671;49.976;20.038;2023-02-08T01:24:08;105.65;;;43.72;;
76745;SDS011;65671;49.976;20.038;2023-02-08T01:26:34;101.43;;;46.28;;
76745;SDS011;65671;49.976;20.038;2023-02-08T01:29:01;93.75;;;43.22;;
76745;SDS011;65671;49.976;20.038;2023-02-08T01:31:29;93.85;;;41.50;;
76745;SDS011;65671;49.976;20.038;2023-02-08T01:33:57;93.07;;;42.78;;
76745;SDS011;65671;49.976;20.038;2023-02-08T01:36:23;90.53;;;41.50;;
76745;SDS011;65671;49.976;20.038;2023-02-08T01:38:50;102.95;;;43.40;;
76745;SDS011;65671;49.976;20.038;2023-02-08T01:41:37;103.50;;;41.47;;
76745;SDS011;65671;49.976;20.038;2023-02-08T01:44:08;86.85;;;39.25;;
76745;SDS011;65671;49.976;20.038;2023-02-08T01:47:10;88.95;;;37.90;;
76745;SDS011;65671;49.976;20.038;2023-02-08T01:52:04;91.93;;;39.90;;
76745;SDS011;65671;49.976;20.038;2023-02-08T01:54:44;91.15;;;40.25;;
76745;SDS011;65671;49.976;20.038;2023-02-08T01:57:15;96.70;;;42.85;;
76745;SDS011;65671;49.976;20.038;2023-02-08T01:59:42;92.20;;;42.97;;
76745;SDS011;65671;49.976;20.038;2023-02-08T02:02:12;85.15;;;39.72;;
76745;SDS011;65671;49.976;20.038;2023-02-08T02:04:40;92.95;;;40.72;;
76745;SDS011;65671;49.976;20.038;2023-02-08T02:07:07;94.18;;;42.47;;
76745;SDS011;65671;49.976;20.038;2023-02-08T02:09:41;105.78;;;43.83;;
76745;SDS011;65671;49.976;20.038;2023-02-08T02:12:11;98.88;;;43.45;;
76745;SDS011;65671;49.976;20.038;2023-02-08T02:14:38;101.03;;;43.05;;
76745;SDS011;65671;49.976;20.038;2023-02-08T02:17:04;103.30;;;45.97;;
76745;SDS011;65671;49.976;20.038;2023-02-08T02:31:11;104.85;;;45.78;;
76745;SDS011;65671;49.976;20.038;2023-02-08T02:36:32;111.93;;;49.05;;
76745;SDS011;65671;49.976;20.038;2023-02-08T02:41:47;127.38;;;52.67;;
76745;SDS011;65671;49.976;20.038;2023-02-08T02:44:45;119.00;;;49.47;;
76745;SDS011;65671;49.976;20.038;2023-02-08T02:50:23;116.47;;;51.00;;
76745;SDS011;65671;49.976;20.038;2023-02-08T02:55:41;96.75;;;44.28;;
76745;SDS011;65671;49.976;20.038;2023-02-08T02:58:11;80.53;;;35.97;;
76745;SDS011;65671;49.976;20.038;2023-02-08T03:00:40;84.15;;;34.03;;
76745;SDS011;65671;49.976;20.038;2023-02-08T03:03:12;75.18;;;35.95;;
76745;SDS011;65671;49.976;20.038;2023-02-08T03:05:45;83.50;;;34.55;;
76745;SDS011;65671;49.976;20.038;2023-02-08T03:08:17;83.53;;;34.40;;
76745;SDS011;65671;49.976;20.038;2023-02-08T03:15:53;82.10;;;33.92;;
76745;SDS011;65671;49.976;20.038;2023-02-08T03:26:53;104.50;;;45.85;;
76745;SDS011;65671;49.976;20.038;2023-02-08T03:32:17;108.47;;;49.35;;
76745;SDS011;65671;49.976;20.038;2023-02-08T03:37:11;107.63;;;47.10;;
76745;SDS011;65671;49.976;20.038;2023-02-08T03:39:42;110.90;;;51.13;;
76745;SDS011;65671;49.976;20.038;2023-02-08T03:42:14;107.50;;;48.60;;
76745;SDS011;65671;49.976;20.038;2023-02-08T03:44:48;88.07;;;41.55;;
76745;SDS011;65671;49.976;20.038;2023-02-08T03:47:21;94.05;;;44.58;;
76745;SDS011;65671;49.976;20.038;2023-02-08T03:49:52;117.88;;;52.10;;
76745;SDS011;65671;49.976;20.038;2023-02-08T03:52:21;112.55;;;50.15;;
76745;SDS011;65671;49.976;20.038;2023-02-08T03:55:02;109.13;;;47.92;;
76745;SDS011;65671;49.976;20.038;2023-02-08T03:57:33;106.57;;;44.85;;
76745;SDS011;65671;49.976;20.038;2023-02-08T04:00:06;114.35;;;49.60;;
76745;SDS011;65671;49.976;20.038;2023-02-08T04:02:36;119.35;;;49.20;;
76745;SDS011;65671;49.976;20.038;2023-02-08T04:05:06;116.20;;;51.13;;
76745;SDS011;65671;49.976;20.038;2023-02-08T04:07:33;120.75;;;52.47;;
76745;SDS011;65671;49.976;20.038;2023-02-08T04:09:58;123.43;;;52.25;;
76745;SDS011;65671;49.976;20.038;2023-02-08T04:12:24;103.65;;;49.17;;
76745;SDS011;65671;49.976;20.038;2023-02-08T04:14:49;106.25;;;46.97;;
76745;SDS011;65671;49.976;20.038;2023-02-08T04:17:15;102.28;;;45.15;;
76745;SDS011;65671;49.976;20.038;2023-02-08T04:19:40;92.50;;;41.30;;
76745;SDS011;65671;49.976;20.038;2023-02-08T04:22:06;93.35;;;41.10;;
76745;SDS011;65671;49.976;20.038;2023-02-08T04:24:31;94.10;;;41.33;;
76745;SDS011;65671;49.976;20.038;2023-02-08T04:26:57;91.15;;;40.83;;
76745;SDS011;65671;49.976;20.038;2023-02-08T04:29:22;93.55;;;40.38;;
76745;SDS011;65671;49.976;20.038;2023-02-08T04:31:48;95.80;;;41.78;;
76745;SDS011;65671;49.976;20.038;2023-02-08T04:34:14;96.20;;;41.67;;
76745;SDS011;65671;49.976;20.038;2023-02-08T04:39:05;86.65;;;35.97;;
76745;SDS011;65671;49.976;20.038;2023-02-08T04:43:56;72.32;;;32.65;;
76745;SDS011;65671;49.976;20.038;2023-02-08T04:46:21;74.60;;;33.33;;
76745;SDS011;65671;49.976;20.038;2023-02-08T04:48:47;68.57;;;30.08;;
76745;SDS011;65671;49.976;20.038;2023-02-08T04:51:12;75.13;;;31.08;;
76745;SDS011;65671;49.976;20.038;2023-02-08T04:53:38;74.47;;;31.98;;
76745;SDS011;65671;49.976;20.038;2023-02-08T04:56:04;73.00;;;30.38;;
76745;SDS011;65671;49.976;20.038;2023-02-08T04:58:29;70.03;;;30.10;;
76745;SDS011;65671;49.976;20.038;2023-02-08T05:00:55;68.13;;;28.88;;
76745;SDS011;65671;49.976;20.038;2023-02-08T05:03:21;64.35;;;27.92;;
76745;SDS011;65671;49.976;20.038;2023-02-08T05:05:54;67.35;;;28.77;;
76745;SDS011;65671;49.976;20.038;2023-02-08T05:08:21;67.00;;;27.05;;
76745;SDS011;65671;49.976;20.038;2023-02-08T05:10:47;55.30;;;22.73;;
76745;SDS011;65671;49.976;20.038;2023-02-08T05:13:12;46.63;;;20.52;;
76745;SDS011;65671;49.976;20.038;2023-02-08T05:15:38;47.83;;;20.90;;
76745;SDS011;65671;49.976;20.038;2023-02-08T05:18:09;61.00;;;23.98;;
76745;SDS011;65671;49.976;20.038;2023-02-08T05:20:35;51.97;;;21.35;;
76745;SDS011;65671;49.976;20.038;2023-02-08T05:23:01;54.42;;;21.98;;
76745;SDS011;65671;49.976;20.038;2023-02-08T05:25:26;48.72;;;21.75;;
76745;SDS011;65671;49.976;20.038;2023-02-08T05:27:52;49.53;;;21.83;;
76745;SDS011;65671;49.976;20.038;2023-02-08T05:30:17;55.03;;;22.38;;
76745;SDS011;65671;49.976;20.038;2023-02-08T05:32:43;49.15;;;21.63;;
76745;SDS011;65671;49.976;20.038;2023-02-08T05:35:09;75.80;;;25.95;;
76745;SDS011;65671;49.976;20.038;2023-02-08T05:37:34;65.47;;;26.20;;
76745;SDS011;65671;49.976;20.038;2023-02-08T05:40:00;65.75;;;25.48;;
76745;SDS011;65671;49.976;20.038;2023-02-08T05:42:25;60.25;;;24.98;;
76745;SDS011;65671;49.976;20.038;2023-02-08T05:44:51;69.35;;;29.67;;
76745;SDS011;65671;49.976;20.038;2023-02-08T05:47:17;69.80;;;27.15;;
76745;SDS011;65671;49.976;20.038;2023-02-08T05:52:08;60.28;;;24.40;;
76745;SDS011;65671;49.976;20.038;2023-02-08T05:54:34;56.83;;;26.20;;
76745;SDS011;65671;49.976;20.038;2023-02-08T05:57:00;50.67;;;23.80;;
76745;SDS011;65671;49.976;20.038;2023-02-08T05:59:26;55.72;;;25.00;;
76745;SDS011;65671;49.976;20.038;2023-02-08T06:01:51;55.92;;;24.50;;
76745;SDS011;65671;49.976;20.038;2023-02-08T06:04:17;60.13;;;25.85;;
76745;SDS011;65671;49.976;20.038;2023-02-08T06:06:42;54.88;;;23.63;;
76745;SDS011;65671;49.976;20.038;2023-02-08T06:09:08;61.78;;;24.58;;
76745;SDS011;65671;49.976;20.038;2023-02-08T06:11:34;64.85;;;24.50;;
76745;SDS011;65671;49.976;20.038;2023-02-08T06:16:26;54.53;;;22.98;;
76745;SDS011;65671;49.976;20.038;2023-02-08T06:18:51;54.63;;;25.25;;
76745;SDS011;65671;49.976;20.038;2023-02-08T06:21:17;55.33;;;23.63;;
76745;SDS011;65671;49.976;20.038;2023-02-08T06:23:43;60.30;;;24.52;;
76745;SDS011;65671;49.976;20.038;2023-02-08T06:28:34;56.53;;;21.98;;
76745;SDS011;65671;49.976;20.038;2023-02-08T06:31:00;61.78;;;24.15;;
76745;SDS011;65671;49.976;20.038;2023-02-08T06:33:25;57.17;;;25.55;;
76745;SDS011;65671;49.976;20.038;2023-02-08T06:35:51;61.38;;;28.02;;
76745;SDS011;65671;49.976;20.038;2023-02-08T06:38:17;61.70;;;26.50;;
76745;SDS011;65671;49.976;20.038;2023-02-08T06:40:45;60.63;;;26.55;;
76745;SDS011;65671;49.976;20.038;2023-02-08T06:43:12;66.85;;;29.30;;
76745;SDS011;65671;49.976;20.038;2023-02-08T06:45:39;73.82;;;32.83;;
76745;SDS011;65671;49.976;20.038;2023-02-08T06:48:06;63.47;;;27.17;;
76745;SDS011;65671;49.976;20.038;2023-02-08T06:50:32;64.35;;;27.90;;
76745;SDS011;65671;49.976;20.038;2023-02-08T06:52:58;68.93;;;29.73;;
76745;SDS011;65671;49.976;20.038;2023-02-08T06:55:24;73.97;;;28.27;;
76745;SDS011;65671;49.976;20.038;2023-02-08T07:00:18;71.38;;;28.52;;
76745;SDS011;65671;49.976;20.038;2023-02-08T07:02:44;73.18;;;29.33;;
76745;SDS011;65671;49.976;20.038;2023-02-08T07:05:11;64.50;;;28.20;;
76745;SDS011;65671;49.976;20.038;2023-02-08T07:07:38;68.60;;;31.90;;
76745;SDS011;65671;49.976;20.038;2023-02-08T07:12:33;72.43;;;31.60;;
76745;SDS011;65671;49.976;20.038;2023-02-08T07:15:01;82.85;;;34.28;;
76745;SDS011;65671;49.976;20.038;2023-02-08T07:19:52;83.60;;;33.80;;
76745;SDS011;65671;49.976;20.038;2023-02-08T07:22:18;87.13;;;34.20;;
76745;SDS011;65671;49.976;20.038;2023-02-08T07:24:44;86.50;;;37.17;;
76745;SDS011;65671;49.976;20.038;2023-02-08T07:27:10;84.50;;;37.35;;
76745;SDS011;65671;49.976;20.038;2023-02-08T07:29:37;86.60;;;38.65;;
76745;SDS011;65671;49.976;20.038;2023-02-08T07:32:04;93.07;;;40.30;;
76745;SDS011;65671;49.976;20.038;2023-02-08T07:34:31;88.70;;;38.88;;
76745;SDS011;65671;49.976;20.038;2023-02-08T07:36:58;98.20;;;43.75;;
76745;SDS011;65671;49.976;20.038;2023-02-08T07:39:23;101.93;;;41.55;;
76745;SDS011;65671;49.976;20.038;2023-02-08T07:41:49;94.93;;;43.55;;
76745;SDS011;65671;49.976;20.038;2023-02-08T07:44:15;91.18;;;38.70;;
76745;SDS011;65671;49.976;20.038;2023-02-08T07:46:40;85.30;;;38.70;;
76745;SDS011;65671;49.976;20.038;2023-02-08T07:49:06;86.43;;;39.35;;
76745;SDS011;65671;49.976;20.038;2023-02-08T07:51:32;81.07;;;36.28;;
76745;SDS011;65671;49.976;20.038;2023-02-08T07:54:00;91.43;;;40.83;;
76745;SDS011;65671;49.976;20.038;2023-02-08T07:56:26;87.88;;;38.42;;
76745;SDS011;65671;49.976;20.038;2023-02-08T07:58:51;92.60;;;36.47;;
76745;SDS011;65671;49.976;20.038;2023-02-08T08:01:17;85.32;;;35.45;;
76745;SDS011;65671;49.976;20.038;2023-02-08T08:03:42;104.82;;;39.47;;
76745;SDS011;65671;49.976;20.038;2023-02-08T08:06:08;83.03;;;36.45;;
76745;SDS011;65671;49.976;20.038;2023-02-08T08:08:33;81.50;;;35.85;;
76745;SDS011;65671;49.976;20.038;2023-02-08T08:10:59;90.20;;;36.83;;
76745;SDS011;65671;49.976;20.038;2023-02-08T08:13:25;92.40;;;38.90;;
76745;SDS011;65671;49.976;20.038;2023-02-08T08:15:50;88.53;;;38.78;;
76745;SDS011;65671;49.976;20.038;2023-02-08T08:18:16;83.30;;;36.33;;
76745;SDS011;65671;49.976;20.038;2023-02-08T08:20:41;80.43;;;35.67;;
76745;SDS011;65671;49.976;20.038;2023-02-08T08:23:07;83.88;;;35.15;;
76745;SDS011;65671;49.976;20.038;2023-02-08T08:25:33;86.57;;;35.90;;
76745;SDS011;65671;49.976;20.038;2023-02-08T08:30:25;85.57;;;33.80;;
76745;SDS011;65671;49.976;20.038;2023-02-08T08:32:50;123.28;;;50.10;;
76745;SDS011;65671;49.976;20.038;2023-02-08T08:35:16;88.60;;;35.60;;
76745;SDS011;65671;49.976;20.038;2023-02-08T08:37:41;74.63;;;33.30;;
76745;SDS011;65671;49.976;20.038;2023-02-08T08:40:07;87.72;;;36.67;;
76745;SDS011;65671;49.976;20.038;2023-02-08T08:42:34;88.85;;;36.97;;
76745;SDS011;65671;49.976;20.038;2023-02-08T08:45:00;84.13;;;35.20;;
76745;SDS011;65671;49.976;20.038;2023-02-08T08:47:27;74.15;;;32.20;;
76745;SDS011;65671;49.976;20.038;2023-02-08T08:49:52;76.57;;;33.17;;
76745;SDS011;65671;49.976;20.038;2023-02-08T08:52:18;79.70;;;33.25;;
76745;SDS011;65671;49.976;20.038;2023-02-08T08:54:43;75.07;;;33.78;;
76745;SDS011;65671;49.976;20.038;2023-02-08T08:59:35;76.68;;;26.95;;
76745;SDS011;65671;49.976;20.038;2023-02-08T09:02:00;69.25;;;28.02;;
76745;SDS011;65671;49.976;20.038;2023-02-08T09:04:26;61.28;;;25.25;;
76745;SDS011;65671;49.976;20.038;2023-02-08T09:06:52;64.30;;;25.58;;
76745;SDS011;65671;49.976;20.038;2023-02-08T09:09:19;50.88;;;19.80;;
76745;SDS011;65671;49.976;20.038;2023-02-08T09:11:45;49.47;;;20.73;;
76745;SDS011;65671;49.976;20.038;2023-02-08T09:14:11;41.60;;;18.38;;
76745;SDS011;65671;49.976;20.038;2023-02-08T09:16:39;36.95;;;15.48;;
76745;SDS011;65671;49.976;20.038;2023-02-08T09:19:07;39.78;;;17.25;;
76745;SDS011;65671;49.976;20.038;2023-02-08T09:21:34;31.42;;;14.18;;
76745;SDS011;65671;49.976;20.038;2023-02-08T09:24:01;48.65;;;19.08;;
76745;SDS011;65671;49.976;20.038;2023-02-08T09:26:28;48.20;;;17.45;;
76745;SDS011;65671;49.976;20.038;2023-02-08T09:28:54;44.38;;;18.67;;
76745;SDS011;65671;49.976;20.038;2023-02-08T09:33:47;38.75;;;16.25;;
76745;SDS011;65671;49.976;20.038;2023-02-08T09:36:13;41.83;;;15.57;;
76745;SDS011;65671;49.976;20.038;2023-02-08T09:38:39;42.00;;;17.55;;
76745;SDS011;65671;49.976;20.038;2023-02-08T09:46:35;48.60;;;20.52;;
76745;SDS011;65671;49.976;20.038;2023-02-08T09:49:07;41.55;;;15.98;;
76745;SDS011;65671;49.976;20.038;2023-02-08T09:51:50;41.20;;;17.30;;
76745;SDS011;65671;49.976;20.038;2023-02-08T09:54:37;49.97;;;21.67;;
76745;SDS011;65671;49.976;20.038;2023-02-08T09:57:09;49.63;;;20.02;;
76745;SDS011;65671;49.976;20.038;2023-02-08T09:59:39;46.65;;;19.83;;
76745;SDS011;65671;49.976;20.038;2023-02-08T10:02:19;40.30;;;17.40;;
76745;SDS011;65671;49.976;20.038;2023-02-08T10:07:24;42.20;;;16.58;;
76745;SDS011;65671;49.976;20.038;2023-02-08T10:09:52;42.55;;;18.15;;
76745;SDS011;65671;49.976;20.038;2023-02-08T10:12:30;35.72;;;15.50;;
76745;SDS011;65671;49.976;20.038;2023-02-08T10:15:17;35.97;;;15.85;;
76745;SDS011;65671;49.976;20.038;2023-02-08T10:17:52;35.60;;;15.43;;
76745;SDS011;65671;49.976;20.038;2023-02-08T10:20:47;34.75;;;15.65;;
76745;SDS011;65671;49.976;20.038;2023-02-08T10:23:23;40.38;;;16.27;;
76745;SDS011;65671;49.976;20.038;2023-02-08T10:26:12;37.30;;;16.00;;
76745;SDS011;65671;49.976;20.038;2023-02-08T10:39:44;30.55;;;13.55;;
76745;SDS011;65671;49.976;20.038;2023-02-08T10:42:15;18.92;;;9.90;;
76745;SDS011;65671;49.976;20.038;2023-02-08T10:44:50;18.77;;;8.75;;
76745;SDS011;65671;49.976;20.038;2023-02-08T10:47:48;22.10;;;8.65;;
76745;SDS011;65671;49.976;20.038;2023-02-08T10:50:42;22.63;;;10.88;;
76745;SDS011;65671;49.976;20.038;2023-02-08T10:53:15;16.25;;;7.93;;
76745;SDS011;65671;49.976;20.038;2023-02-08T10:55:43;16.33;;;7.78;;
76745;SDS011;65671;49.976;20.038;2023-02-08T10:58:21;15.88;;;8.35;;
76745;SDS011;65671;49.976;20.038;2023-02-08T11:00:50;14.43;;;7.20;;
76745;SDS011;65671;49.976;20.038;2023-02-08T11:05:46;17.42;;;8.90;;
76745;SDS011;65671;49.976;20.038;2023-02-08T11:08:13;18.17;;;8.45;;
76745;SDS011;65671;49.976;20.038;2023-02-08T11:13:32;20.38;;;7.80;;
76745;SDS011;65671;49.976;20.038;2023-02-08T11:19:03;26.95;;;11.23;;
76745;SDS011;65671;49.976;20.038;2023-02-08T11:21:36;20.33;;;9.10;;
76745;SDS011;65671;49.976;20.038;2023-02-08T11:24:15;15.70;;;8.65;;
76745;SDS011;65671;49.976;20.038;2023-02-08T11:26:54;16.13;;;7.95;;
76745;SDS011;65671;49.976;20.038;2023-02-08T11:37:13;14.73;;;7.50;;
76745;SDS011;65671;49.976;20.038;2023-02-08T11:39:43;15.52;;;6.28;;
76745;SDS011;65671;49.976;20.038;2023-02-08T11:42:33;19.15;;;8.13;;
76745;SDS011;65671;49.976;20.038;2023-02-08T11:45:00;32.13;;;11.98;;
76745;SDS011;65671;49.976;20.038;2023-02-08T11:47:28;21.38;;;9.02;;
76745;SDS011;65671;49.976;20.038;2023-02-08T11:49:58;13.88;;;6.63;;
76745;SDS011;65671;49.976;20.038;2023-02-08T11:52:27;16.15;;;6.88;;
76745;SDS011;65671;49.976;20.038;2023-02-08T11:58:41;15.18;;;7.32;;
76745;SDS011;65671;49.976;20.038;2023-02-08T12:00:36;14.27;;;7.25;;
76745;SDS011;65671;49.976;20.038;2023-02-08T12:03:10;12.10;;;6.75;;
76745;SDS011;65671;49.976;20.038;2023-02-08T12:09:31;21.05;;;8.57;;
76745;SDS011;65671;49.976;20.038;2023-02-08T12:11:49;14.85;;;7.60;;
76745;SDS011;65671;49.976;20.038;2023-02-08T12:20:03;12.70;;;6.63;;
76745;SDS011;65671;49.976;20.038;2023-02-08T12:22:40;13.48;;;6.90;;
76745;SDS011;65671;49.976;20.038;2023-02-08T12:28:06;16.33;;;7.47;;
76745;SDS011;65671;49.976;20.038;2023-02-08T12:30:44;13.10;;;6.90;;
76745;SDS011;65671;49.976;20.038;2023-02-08T12:39:31;15.50;;;7.32;;
76745;SDS011;65671;49.976;20.038;2023-02-08T12:55:55;15.35;;;7.07;;
76745;SDS011;65671;49.976;20.038;2023-02-08T12:58:28;12.70;;;6.85;;
76745;SDS011;65671;49.976;20.038;2023-02-08T13:00:56;14.75;;;7.70;;
76745;SDS011;65671;49.976;20.038;2023-02-08T13:05:56;17.40;;;7.25;;
76745;SDS011;65671;49.976;20.038;2023-02-08T13:14:19;13.18;;;6.07;;
76745;SDS011;65671;49.976;20.038;2023-02-08T13:17:41;10.45;;;5.80;;
76745;SDS011;65671;49.976;20.038;2023-02-08T13:19:59;16.83;;;7.18;;
76745;SDS011;65671;49.976;20.038;2023-02-08T13:22:36;19.38;;;8.55;;
76745;SDS011;65671;49.976;20.038;2023-02-08T13:25:06;15.82;;;7.10;;
76745;SDS011;65671;49.976;20.038;2023-02-08T13:27:39;20.13;;;8.57;;
76745;SDS011;65671;49.976;20.038;2023-02-08T13:30:05;17.67;;;8.05;;
76745;SDS011;65671;49.976;20.038;2023-02-08T13:32:37;17.10;;;7.20;;
76745;SDS011;65671;49.976;20.038;2023-02-08T13:35:16;16.75;;;8.75;;
76745;SDS011;65671;49.976;20.038;2023-02-08T13:37:51;14.15;;;7.47;;
76745;SDS011;65671;49.976;20.038;2023-02-08T13:40:34;15.35;;;7.38;;
76745;SDS011;65671;49.976;20.038;2023-02-08T13:45:34;14.50;;;7.40;;
76745;SDS011;65671;49.976;20.038;2023-02-08T13:48:05;20.73;;;10.52;;
76745;SDS011;65671;49.976;20.038;2023-02-08T13:50:38;17.13;;;9.18;;
76745;SDS011;65671;49.976;20.038;2023-02-08T13:53:08;13.15;;;8.05;;
76745;SDS011;65671;49.976;20.038;2023-02-08T13:55:38;13.60;;;6.80;;
76745;SDS011;65671;49.976;20.038;2023-02-08T13:58:37;14.15;;;7.35;;
76745;SDS011;65671;49.976;20.038;2023-02-08T14:01:14;28.00;;;11.88;;
76745;SDS011;65671;49.976;20.038;2023-02-08T14:03:41;40.60;;;15.70;;
76745;SDS011;65671;49.976;20.038;2023-02-08T14:09:05;66.95;;;22.80;;
76745;SDS011;65671;49.976;20.038;2023-02-08T14:11:45;45.45;;;17.90;;
76745;SDS011;65671;49.976;20.038;2023-02-08T14:14:27;36.88;;;14.40;;
76745;SDS011;65671;49.976;20.038;2023-02-08T14:19:29;41.20;;;15.77;;
76745;SDS011;65671;49.976;20.038;2023-02-08T14:22:04;37.22;;;13.18;;
76745;SDS011;65671;49.976;20.038;2023-02-08T14:27:26;19.40;;;8.60;;
76745;SDS011;65671;49.976;20.038;2023-02-08T14:32:46;15.88;;;8.35;;
76745;SDS011;65671;49.976;20.038;2023-02-08T14:37:43;24.35;;;10.95;;
76745;SDS011;65671;49.976;20.038;2023-02-08T14:43:02;20.63;;;9.55;;
76745;SDS011;65671;49.976;20.038;2023-02-08T14:45:51;21.67;;;10.02;;
76745;SDS011;65671;49.976;20.038;2023-02-08T14:48:32;24.52;;;11.20;;
76745;SDS011;65671;49.976;20.038;2023-02-08T14:59:07;20.67;;;10.65;;
76745;SDS011;65671;49.976;20.038;2023-02-08T15:01:42;19.15;;;9.65;;
76745;SDS011;65671;49.976;20.038;2023-02-08T15:04:12;17.65;;;9.50;;
76745;SDS011;65671;49.976;20.038;2023-02-08T15:09:19;16.70;;;10.05;;
76745;SDS011;65671;49.976;20.038;2023-02-08T15:11:56;17.95;;;9.65;;
76745;SDS011;65671;49.976;20.038;2023-02-08T15:14:25;18.52;;;10.20;;
76745;SDS011;65671;49.976;20.038;2023-02-08T15:16:53;20.35;;;10.45;;
76745;SDS011;65671;49.976;20.038;2023-02-08T15:19:27;18.38;;;8.98;;
76745;SDS011;65671;49.976;20.038;2023-02-08T15:22:15;19.38;;;11.00;;
76745;SDS011;65671;49.976;20.038;2023-02-08T15:24:55;16.80;;;10.15;;
76745;SDS011;65671;49.976;20.038;2023-02-08T15:27:30;17.00;;;10.02;;
76745;SDS011;65671;49.976;20.038;2023-02-08T15:29:57;19.30;;;9.95;;
76745;SDS011;65671;49.976;20.038;2023-02-08T15:32:25;19.48;;;9.88;;
76745;SDS011;65671;49.976;20.038;2023-02-08T15:34:53;25.92;;;10.13;;
76745;SDS011;65671;49.976;20.038;2023-02-08T15:37:21;21.05;;;10.20;;
76745;SDS011;65671;49.976;20.038;2023-02-08T15:39:48;24.77;;;11.88;;
76745;SDS011;65671;49.976;20.038;2023-02-08T15:42:27;20.83;;;10.27;;
76745;SDS011;65671;49.976;20.038;2023-02-08T15:44:56;22.65;;;10.93;;
76745;SDS011;65671;49.976;20.038;2023-02-08T15:47:27;24.00;;;12.35;;
76745;SDS011;65671;49.976;20.038;2023-02-08T15:49:56;23.23;;;10.82;;
76745;SDS011;65671;49.976;20.038;2023-02-08T15:52:24;19.30;;;9.98;;
76745;SDS011;65671;49.976;20.038;2023-02-08T15:54:55;22.75;;;10.25;;
76745;SDS011;65671;49.976;20.038;2023-02-08T15:59:56;26.35;;;11.75;;
76745;SDS011;65671;49.976;20.038;2023-02-08T16:02:29;32.95;;;15.07;;
76745;SDS011;65671;49.976;20.038;2023-02-08T16:05:01;31.70;;;13.40;;
76745;SDS011;65671;49.976;20.038;2023-02-08T16:07:35;37.17;;;16.80;;
76745;SDS011;65671;49.976;20.038;2023-02-08T16:10:03;30.00;;;14.48;;
76745;SDS011;65671;49.976;20.038;2023-02-08T16:12:30;29.67;;;14.77;;
76745;SDS011;65671;49.976;20.038;2023-02-08T16:14:56;34.75;;;16.40;;
76745;SDS011;65671;49.976;20.038;2023-02-08T16:17:35;35.80;;;14.73;;
76745;SDS011;65671;49.976;20.038;2023-02-08T16:20:24;31.23;;;13.52;;
76745;SDS011;65671;49.976;20.038;2023-02-08T16:22:56;32.10;;;14.57;;
76745;SDS011;65671;49.976;20.038;2023-02-08T16:28:16;31.70;;;14.05;;
76745;SDS011;65671;49.976;20.038;2023-02-08T16:30:55;34.70;;;15.38;;
76745;SDS011;65671;49.976;20.038;2023-02-08T16:33:23;30.05;;;14.13;;
76745;SDS011;65671;49.976;20.038;2023-02-08T16:35:50;33.05;;;13.90;;
76745;SDS011;65671;49.976;20.038;2023-02-08T16:38:18;34.33;;;15.23;;
76745;SDS011;65671;49.976;20.038;2023-02-08T16:40:49;34.45;;;17.40;;
76745;SDS011;65671;49.976;20.038;2023-02-08T16:43:19;35.33;;;15.45;;
76745;SDS011;65671;49.976;20.038;2023-02-08T16:48:33;27.80;;;13.50;;
76745;SDS011;65671;49.976;20.038;2023-02-08T16:51:02;28.88;;;12.75;;
76745;SDS011;65671;49.976;20.038;2023-02-08T16:53:30;30.13;;;11.70;;
76745;SDS011;65671;49.976;20.038;2023-02-08T16:55:56;22.63;;;11.27;;
76745;SDS011;65671;49.976;20.038;2023-02-08T16:58:23;31.25;;;13.35;;
76745;SDS011;65671;49.976;20.038;2023-02-08T17:00:49;26.02;;;12.18;;
76745;SDS011;65671;49.976;20.038;2023-02-08T17:03:15;28.80;;;13.77;;
76745;SDS011;65671;49.976;20.038;2023-02-08T17:05:40;30.30;;;13.10;;
76745;SDS011;65671;49.976;20.038;2023-02-08T17:08:10;30.98;;;13.65;;
76745;SDS011;65671;49.976;20.038;2023-02-08T17:10:39;32.03;;;13.07;;
76745;SDS011;65671;49.976;20.038;2023-02-08T17:13:04;29.63;;;13.07;;
76745;SDS011;65671;49.976;20.038;2023-02-08T17:15:30;29.48;;;11.80;;
76745;SDS011;65671;49.976;20.038;2023-02-08T17:17:58;30.15;;;13.25;;
76745;SDS011;65671;49.976;20.038;2023-02-08T17:20:25;29.70;;;13.02;;
76745;SDS011;65671;49.976;20.038;2023-02-08T17:22:54;37.78;;;16.42;;
76745;SDS011;65671;49.976;20.038;2023-02-08T17:25:22;57.33;;;21.95;;
76745;SDS011;65671;49.976;20.038;2023-02-08T17:27:50;46.50;;;18.85;;
76745;SDS011;65671;49.976;20.038;2023-02-08T17:30:26;46.00;;;18.38;;
76745;SDS011;65671;49.976;20.038;2023-02-08T17:32:52;44.65;;;19.45;;